sensor_id;sensor_type;location;lat;lon;timestamp;P1;durP1;ratioP1;P2;durP2;ratioP2
24617;SDS011;12762;51.730;5.356;2023-02-28T00:01:08;6.27;;;3.20;;
24617;SDS011;12762;51.730;5.356;2023-02-28T00:03:34;8.80;;;4.30;;
24617;SDS011;12762;51.730;5.356;2023-02-28T00:06:02;9.33;;;4.13;;
24617;SDS011;12762;51.730;5.356;2023-02-28T00:08:30;6.43;;;3.87;;
24617;SDS011;12762;51.730;5.356;2023-02-28T00:11:00;8.67;;;4.13;;
24617;SDS011;12762;51.730;5.356;2023-02-28T00:13:31;6.97;;;3.60;;
24617;SDS011;12762;51.730;5.356;2023-02-28T00:16:03;5.97;;;3.93;;
24617;SDS011;12762;51.730;5.356;2023-02-28T00:18:41;7.23;;;4.17;;
24617;SDS011;12762;51.730;5.356;2023-02-28T00:21:08;7.60;;;4.07;;
24617;SDS011;12762;51.730;5.356;2023-02-28T00:23:35;7.90;;;4.03;;
24617;SDS011;12762;51.730;5.356;2023-02-28T00:26:03;8.80;;;4.50;;
24617;SDS011;12762;51.730;5.356;2023-02-28T00:28:30;7.73;;;4.50;;
24617;SDS011;12762;51.730;5.356;2023-02-28T00:30:57;6.20;;;3.60;;
24617;SDS011;12762;51.730;5.356;2023-02-28T00:33:24;11.83;;;3.97;;
24617;SDS011;12762;51.730;5.356;2023-02-28T00:36:10;6.87;;;3.83;;
24617;SDS011;12762;51.730;5.356;2023-02-28T00:38:38;7.20;;;3.60;;
24617;SDS011;12762;51.730;5.356;2023-02-28T00:41:10;9.13;;;4.27;;
24617;SDS011;12762;51.730;5.356;2023-02-28T00:43:40;6.00;;;3.47;;
24617;SDS011;12762;51.730;5.356;2023-02-28T00:46:07;7.70;;;3.77;;
24617;SDS011;12762;51.730;5.356;2023-02-28T00:48:35;8.80;;;3.57;;
24617;SDS011;12762;51.730;5.356;2023-02-28T00:51:03;5.87;;;3.60;;
24617;SDS011;12762;51.730;5.356;2023-02-28T00:53:30;6.47;;;4.00;;
24617;SDS011;12762;51.730;5.356;2023-02-28T00:55:58;6.63;;;3.27;;
24617;SDS011;12762;51.730;5.356;2023-02-28T00:58:25;6.37;;;3.67;;
24617;SDS011;12762;51.730;5.356;2023-02-28T01:00:52;6.40;;;3.50;;
24617;SDS011;12762;51.730;5.356;2023-02-28T01:03:20;5.63;;;3.43;;
24617;SDS011;12762;51.730;5.356;2023-02-28T01:05:48;5.03;;;3.53;;
24617;SDS011;12762;51.730;5.356;2023-02-28T01:08:15;5.53;;;3.40;;
24617;SDS011;12762;51.730;5.356;2023-02-28T01:10:42;8.93;;;3.60;;
24617;SDS011;12762;51.730;5.356;2023-02-28T01:13:09;7.57;;;3.60;;
24617;SDS011;12762;51.730;5.356;2023-02-28T01:15:43;7.00;;;3.50;;
24617;SDS011;12762;51.730;5.356;2023-02-28T01:18:15;7.40;;;3.57;;
24617;SDS011;12762;51.730;5.356;2023-02-28T01:20:44;8.93;;;3.83;;
24617;SDS011;12762;51.730;5.356;2023-02-28T01:23:12;7.20;;;3.80;;
24617;SDS011;12762;51.730;5.356;2023-02-28T01:25:39;5.17;;;3.20;;
24617;SDS011;12762;51.730;5.356;2023-02-28T01:28:06;8.00;;;3.13;;
24617;SDS011;12762;51.730;5.356;2023-02-28T01:30:35;8.67;;;3.77;;
24617;SDS011;12762;51.730;5.356;2023-02-28T01:33:02;8.63;;;3.40;;
24617;SDS011;12762;51.730;5.356;2023-02-28T01:35:32;5.00;;;3.10;;
24617;SDS011;12762;51.730;5.356;2023-02-28T01:38:00;6.83;;;3.67;;
24617;SDS011;12762;51.730;5.356;2023-02-28T01:40:46;8.00;;;3.40;;
24617;SDS011;12762;51.730;5.356;2023-02-28T01:43:18;6.33;;;3.50;;
24617;SDS011;12762;51.730;5.356;2023-02-28T01:45:55;8.67;;;3.50;;
24617;SDS011;12762;51.730;5.356;2023-02-28T01:48:29;6.13;;;3.60;;
24617;SDS011;12762;51.730;5.356;2023-02-28T01:51:02;7.37;;;3.70;;
24617;SDS011;12762;51.730;5.356;2023-02-28T01:53:37;6.47;;;3.67;;
24617;SDS011;12762;51.730;5.356;2023-02-28T01:56:09;7.83;;;3.70;;
24617;SDS011;12762;51.730;5.356;2023-02-28T01:58:39;5.90;;;3.47;;
24617;SDS011;12762;51.730;5.356;2023-02-28T02:01:12;6.50;;;3.70;;
24617;SDS011;12762;51.730;5.356;2023-02-28T02:03:54;7.00;;;3.30;;
24617;SDS011;12762;51.730;5.356;2023-02-28T02:06:33;5.10;;;3.20;;
24617;SDS011;12762;51.730;5.356;2023-02-28T02:09:03;8.37;;;3.40;;
24617;SDS011;12762;51.730;5.356;2023-02-28T02:11:30;5.97;;;3.30;;
24617;SDS011;12762;51.730;5.356;2023-02-28T02:16:34;6.00;;;3.50;;
24617;SDS011;12762;51.730;5.356;2023-02-28T02:38:48;8.10;;;4.43;;
24617;SDS011;12762;51.730;5.356;2023-02-28T02:41:23;7.53;;;4.10;;
24617;SDS011;12762;51.730;5.356;2023-02-28T02:44:12;7.17;;;3.93;;
24617;SDS011;12762;51.730;5.356;2023-02-28T02:47:15;5.67;;;3.63;;
24617;SDS011;12762;51.730;5.356;2023-02-28T02:50:15;8.63;;;4.20;;
24617;SDS011;12762;51.730;5.356;2023-02-28T02:52:38;9.70;;;4.10;;
24617;SDS011;12762;51.730;5.356;2023-02-28T02:55:13;8.17;;;4.37;;
24617;SDS011;12762;51.730;5.356;2023-02-28T02:57:45;8.17;;;4.17;;
24617;SDS011;12762;51.730;5.356;2023-02-28T03:00:16;7.97;;;4.33;;
24617;SDS011;12762;51.730;5.356;2023-02-28T03:02:47;6.27;;;3.73;;
24617;SDS011;12762;51.730;5.356;2023-02-28T03:05:21;7.83;;;3.97;;
24617;SDS011;12762;51.730;5.356;2023-02-28T03:07:52;9.80;;;4.63;;
24617;SDS011;12762;51.730;5.356;2023-02-28T03:10:55;7.40;;;4.40;;
24617;SDS011;12762;51.730;5.356;2023-02-28T03:21:32;11.93;;;4.70;;
24617;SDS011;12762;51.730;5.356;2023-02-28T03:24:31;11.50;;;3.80;;
24617;SDS011;12762;51.730;5.356;2023-02-28T03:27:06;7.60;;;4.40;;
24617;SDS011;12762;51.730;5.356;2023-02-28T03:29:47;11.97;;;4.60;;
24617;SDS011;12762;51.730;5.356;2023-02-28T03:32:27;8.73;;;4.37;;
24617;SDS011;12762;51.730;5.356;2023-02-28T03:35:22;9.23;;;4.47;;
24617;SDS011;12762;51.730;5.356;2023-02-28T03:37:54;8.63;;;4.80;;
24617;SDS011;12762;51.730;5.356;2023-02-28T03:40:41;8.80;;;4.47;;
24617;SDS011;12762;51.730;5.356;2023-02-28T03:43:14;8.13;;;4.47;;
24617;SDS011;12762;51.730;5.356;2023-02-28T03:45:47;9.23;;;4.43;;
24617;SDS011;12762;51.730;5.356;2023-02-28T03:48:25;9.37;;;4.70;;
24617;SDS011;12762;51.730;5.356;2023-02-28T03:50:57;8.57;;;4.50;;
24617;SDS011;12762;51.730;5.356;2023-02-28T03:56:11;7.03;;;4.07;;
24617;SDS011;12762;51.730;5.356;2023-02-28T04:01:33;10.13;;;5.00;;
24617;SDS011;12762;51.730;5.356;2023-02-28T04:04:02;8.97;;;4.10;;
24617;SDS011;12762;51.730;5.356;2023-02-28T04:06:30;9.10;;;4.73;;
24617;SDS011;12762;51.730;5.356;2023-02-28T04:08:58;7.80;;;4.70;;
24617;SDS011;12762;51.730;5.356;2023-02-28T04:14:04;9.50;;;4.70;;
24617;SDS011;12762;51.730;5.356;2023-02-28T04:16:32;10.93;;;4.70;;
24617;SDS011;12762;51.730;5.356;2023-02-28T04:19:04;9.53;;;4.63;;
24617;SDS011;12762;51.730;5.356;2023-02-28T04:21:33;6.97;;;4.87;;
24617;SDS011;12762;51.730;5.356;2023-02-28T04:24:02;8.77;;;4.93;;
24617;SDS011;12762;51.730;5.356;2023-02-28T04:26:33;11.57;;;5.33;;
24617;SDS011;12762;51.730;5.356;2023-02-28T04:29:03;10.40;;;5.17;;
24617;SDS011;12762;51.730;5.356;2023-02-28T04:31:31;11.53;;;4.47;;
24617;SDS011;12762;51.730;5.356;2023-02-28T04:33:59;8.23;;;4.80;;
24617;SDS011;12762;51.730;5.356;2023-02-28T04:36:27;9.40;;;4.70;;
24617;SDS011;12762;51.730;5.356;2023-02-28T04:38:54;7.27;;;4.97;;
24617;SDS011;12762;51.730;5.356;2023-02-28T04:41:21;8.20;;;4.73;;
24617;SDS011;12762;51.730;5.356;2023-02-28T04:43:49;9.20;;;4.80;;
24617;SDS011;12762;51.730;5.356;2023-02-28T04:46:18;7.37;;;4.83;;
24617;SDS011;12762;51.730;5.356;2023-02-28T04:48:46;9.10;;;4.40;;
24617;SDS011;12762;51.730;5.356;2023-02-28T04:51:15;8.37;;;4.87;;
24617;SDS011;12762;51.730;5.356;2023-02-28T04:53:46;8.93;;;4.30;;
24617;SDS011;12762;51.730;5.356;2023-02-28T04:56:14;7.07;;;4.20;;
24617;SDS011;12762;51.730;5.356;2023-02-28T04:58:42;10.40;;;4.30;;
24617;SDS011;12762;51.730;5.356;2023-02-28T05:01:26;6.27;;;3.80;;
24617;SDS011;12762;51.730;5.356;2023-02-28T05:04:00;7.33;;;3.77;;
24617;SDS011;12762;51.730;5.356;2023-02-28T05:06:30;8.07;;;4.50;;
24617;SDS011;12762;51.730;5.356;2023-02-28T05:08:59;9.23;;;4.60;;
24617;SDS011;12762;51.730;5.356;2023-02-28T05:11:30;7.13;;;4.07;;
24617;SDS011;12762;51.730;5.356;2023-02-28T05:14:02;6.80;;;3.77;;
24617;SDS011;12762;51.730;5.356;2023-02-28T05:16:31;8.27;;;4.37;;
24617;SDS011;12762;51.730;5.356;2023-02-28T05:18:58;6.90;;;3.90;;
24617;SDS011;12762;51.730;5.356;2023-02-28T05:21:29;6.90;;;4.00;;
24617;SDS011;12762;51.730;5.356;2023-02-28T05:23:59;6.40;;;4.30;;
24617;SDS011;12762;51.730;5.356;2023-02-28T05:26:30;6.50;;;4.17;;
24617;SDS011;12762;51.730;5.356;2023-02-28T05:29:00;6.63;;;3.90;;
24617;SDS011;12762;51.730;5.356;2023-02-28T05:31:27;7.27;;;3.90;;
24617;SDS011;12762;51.730;5.356;2023-02-28T05:33:54;10.13;;;4.20;;
24617;SDS011;12762;51.730;5.356;2023-02-28T05:36:24;8.00;;;3.90;;
24617;SDS011;12762;51.730;5.356;2023-02-28T05:38:51;6.23;;;3.80;;
24617;SDS011;12762;51.730;5.356;2023-02-28T05:41:18;6.40;;;4.13;;
24617;SDS011;12762;51.730;5.356;2023-02-28T05:43:46;7.57;;;4.20;;
24617;SDS011;12762;51.730;5.356;2023-02-28T05:46:14;8.17;;;3.83;;
24617;SDS011;12762;51.730;5.356;2023-02-28T05:48:42;7.63;;;4.00;;
24617;SDS011;12762;51.730;5.356;2023-02-28T05:51:12;7.23;;;3.60;;
24617;SDS011;12762;51.730;5.356;2023-02-28T05:53:39;6.47;;;3.47;;
24617;SDS011;12762;51.730;5.356;2023-02-28T05:56:06;7.90;;;3.20;;
24617;SDS011;12762;51.730;5.356;2023-02-28T05:58:33;5.87;;;3.43;;
24617;SDS011;12762;51.730;5.356;2023-02-28T06:01:18;5.20;;;3.33;;
24617;SDS011;12762;51.730;5.356;2023-02-28T06:03:50;6.47;;;3.10;;
24617;SDS011;12762;51.730;5.356;2023-02-28T06:06:17;5.53;;;3.50;;
24617;SDS011;12762;51.730;5.356;2023-02-28T06:08:44;6.63;;;3.50;;
24617;SDS011;12762;51.730;5.356;2023-02-28T06:11:12;6.20;;;3.63;;
24617;SDS011;12762;51.730;5.356;2023-02-28T06:13:39;5.07;;;2.90;;
24617;SDS011;12762;51.730;5.356;2023-02-28T06:16:07;7.23;;;3.30;;
24617;SDS011;12762;51.730;5.356;2023-02-28T06:18:36;4.73;;;2.90;;
24617;SDS011;12762;51.730;5.356;2023-02-28T06:21:03;4.37;;;2.70;;
24617;SDS011;12762;51.730;5.356;2023-02-28T06:23:30;5.47;;;2.83;;
24617;SDS011;12762;51.730;5.356;2023-02-28T06:25:57;6.00;;;3.00;;
24617;SDS011;12762;51.730;5.356;2023-02-28T06:28:24;5.03;;;3.10;;
24617;SDS011;12762;51.730;5.356;2023-02-28T06:30:52;7.87;;;2.90;;
24617;SDS011;12762;51.730;5.356;2023-02-28T06:33:19;5.10;;;3.23;;
24617;SDS011;12762;51.730;5.356;2023-02-28T06:35:46;7.97;;;3.27;;
24617;SDS011;12762;51.730;5.356;2023-02-28T06:38:18;6.37;;;3.13;;
24617;SDS011;12762;51.730;5.356;2023-02-28T06:40:52;4.40;;;2.70;;
24617;SDS011;12762;51.730;5.356;2023-02-28T06:43:20;5.47;;;3.10;;
24617;SDS011;12762;51.730;5.356;2023-02-28T06:45:47;4.50;;;2.70;;
24617;SDS011;12762;51.730;5.356;2023-02-28T06:48:14;4.70;;;2.60;;
24617;SDS011;12762;51.730;5.356;2023-02-28T06:50:41;7.43;;;2.90;;
24617;SDS011;12762;51.730;5.356;2023-02-28T06:53:08;4.63;;;2.67;;
24617;SDS011;12762;51.730;5.356;2023-02-28T06:55:37;5.10;;;2.33;;
24617;SDS011;12762;51.730;5.356;2023-02-28T06:58:07;4.37;;;2.10;;
24617;SDS011;12762;51.730;5.356;2023-02-28T07:00:41;5.83;;;2.43;;
24617;SDS011;12762;51.730;5.356;2023-02-28T07:03:10;4.30;;;2.30;;
24617;SDS011;12762;51.730;5.356;2023-02-28T07:05:38;5.43;;;3.03;;
24617;SDS011;12762;51.730;5.356;2023-02-28T07:08:06;4.40;;;2.40;;
24617;SDS011;12762;51.730;5.356;2023-02-28T07:10:33;4.23;;;2.60;;
24617;SDS011;12762;51.730;5.356;2023-02-28T07:13:04;6.10;;;2.73;;
24617;SDS011;12762;51.730;5.356;2023-02-28T07:15:31;7.70;;;3.10;;
24617;SDS011;12762;51.730;5.356;2023-02-28T07:17:58;5.53;;;3.00;;
24617;SDS011;12762;51.730;5.356;2023-02-28T07:20:27;7.10;;;2.90;;
24617;SDS011;12762;51.730;5.356;2023-02-28T07:22:55;9.30;;;3.30;;
24617;SDS011;12762;51.730;5.356;2023-02-28T07:25:25;5.27;;;3.03;;
24617;SDS011;12762;51.730;5.356;2023-02-28T07:27:54;6.77;;;3.07;;
24617;SDS011;12762;51.730;5.356;2023-02-28T07:30:22;7.07;;;3.03;;
24617;SDS011;12762;51.730;5.356;2023-02-28T07:32:49;4.40;;;3.07;;
24617;SDS011;12762;51.730;5.356;2023-02-28T07:35:15;4.87;;;2.80;;
24617;SDS011;12762;51.730;5.356;2023-02-28T07:37:43;6.43;;;2.87;;
24617;SDS011;12762;51.730;5.356;2023-02-28T07:40:11;7.70;;;2.50;;
24617;SDS011;12762;51.730;5.356;2023-02-28T07:42:38;5.50;;;2.57;;
24617;SDS011;12762;51.730;5.356;2023-02-28T07:45:07;6.63;;;2.87;;
24617;SDS011;12762;51.730;5.356;2023-02-28T07:47:38;6.53;;;2.70;;
24617;SDS011;12762;51.730;5.356;2023-02-28T07:50:06;4.87;;;2.57;;
24617;SDS011;12762;51.730;5.356;2023-02-28T07:52:34;3.47;;;2.47;;
24617;SDS011;12762;51.730;5.356;2023-02-28T07:55:02;4.93;;;2.87;;
24617;SDS011;12762;51.730;5.356;2023-02-28T07:57:30;4.97;;;2.70;;
24617;SDS011;12762;51.730;5.356;2023-02-28T08:00:04;5.83;;;2.80;;
24617;SDS011;12762;51.730;5.356;2023-02-28T08:02:32;4.87;;;2.63;;
24617;SDS011;12762;51.730;5.356;2023-02-28T08:05:00;3.97;;;2.53;;
24617;SDS011;12762;51.730;5.356;2023-02-28T08:07:27;6.40;;;2.40;;
24617;SDS011;12762;51.730;5.356;2023-02-28T08:09:54;4.27;;;2.37;;
24617;SDS011;12762;51.730;5.356;2023-02-28T08:12:24;5.50;;;2.47;;
24617;SDS011;12762;51.730;5.356;2023-02-28T08:14:53;4.03;;;1.90;;
24617;SDS011;12762;51.730;5.356;2023-02-28T08:17:20;2.23;;;1.23;;
24617;SDS011;12762;51.730;5.356;2023-02-28T08:19:46;2.13;;;1.10;;
24617;SDS011;12762;51.730;5.356;2023-02-28T08:22:13;3.90;;;1.00;;
24617;SDS011;12762;51.730;5.356;2023-02-28T08:24:41;4.97;;;1.60;;
24617;SDS011;12762;51.730;5.356;2023-02-28T08:27:10;3.47;;;1.67;;
24617;SDS011;12762;51.730;5.356;2023-02-28T08:29:37;3.00;;;1.70;;
24617;SDS011;12762;51.730;5.356;2023-02-28T08:32:05;3.10;;;1.60;;
24617;SDS011;12762;51.730;5.356;2023-02-28T08:34:45;2.13;;;1.50;;
24617;SDS011;12762;51.730;5.356;2023-02-28T08:37:13;4.60;;;1.50;;
24617;SDS011;12762;51.730;5.356;2023-02-28T08:39:43;2.23;;;1.17;;
24617;SDS011;12762;51.730;5.356;2023-02-28T08:42:10;2.13;;;1.17;;
24617;SDS011;12762;51.730;5.356;2023-02-28T08:44:36;2.60;;;1.63;;
24617;SDS011;12762;51.730;5.356;2023-02-28T08:47:04;2.30;;;1.20;;
24617;SDS011;12762;51.730;5.356;2023-02-28T08:49:33;4.67;;;1.83;;
24617;SDS011;12762;51.730;5.356;2023-02-28T08:52:00;1.70;;;1.30;;
24617;SDS011;12762;51.730;5.356;2023-02-28T08:54:27;3.73;;;1.63;;
24617;SDS011;12762;51.730;5.356;2023-02-28T08:56:56;3.73;;;1.50;;
24617;SDS011;12762;51.730;5.356;2023-02-28T08:59:23;2.63;;;1.50;;
24617;SDS011;12762;51.730;5.356;2023-02-28T09:01:50;3.33;;;1.60;;
24617;SDS011;12762;51.730;5.356;2023-02-28T09:04:17;1.53;;;1.20;;
24617;SDS011;12762;51.730;5.356;2023-02-28T09:06:46;1.97;;;1.47;;
24617;SDS011;12762;51.730;5.356;2023-02-28T09:09:16;2.33;;;1.50;;
24617;SDS011;12762;51.730;5.356;2023-02-28T09:11:43;3.00;;;1.47;;
24617;SDS011;12762;51.730;5.356;2023-02-28T09:14:09;1.73;;;1.17;;
24617;SDS011;12762;51.730;5.356;2023-02-28T09:16:36;1.83;;;1.50;;
24617;SDS011;12762;51.730;5.356;2023-02-28T09:19:04;1.47;;;1.20;;
24617;SDS011;12762;51.730;5.356;2023-02-28T09:21:31;2.73;;;1.50;;
24617;SDS011;12762;51.730;5.356;2023-02-28T09:23:58;2.43;;;1.30;;
24617;SDS011;12762;51.730;5.356;2023-02-28T09:26:25;1.37;;;1.10;;
24617;SDS011;12762;51.730;5.356;2023-02-28T09:29:04;1.63;;;1.30;;
24617;SDS011;12762;51.730;5.356;2023-02-28T09:31:31;1.60;;;1.10;;
24617;SDS011;12762;51.730;5.356;2023-02-28T09:33:58;2.23;;;1.40;;
24617;SDS011;12762;51.730;5.356;2023-02-28T09:36:28;2.27;;;1.33;;
24617;SDS011;12762;51.730;5.356;2023-02-28T09:39:09;1.73;;;1.40;;
24617;SDS011;12762;51.730;5.356;2023-02-28T09:41:37;2.47;;;1.50;;
24617;SDS011;12762;51.730;5.356;2023-02-28T09:44:36;4.50;;;1.33;;
24617;SDS011;12762;51.730;5.356;2023-02-28T09:47:27;1.43;;;1.10;;
24617;SDS011;12762;51.730;5.356;2023-02-28T09:50:03;3.60;;;1.33;;
24617;SDS011;12762;51.730;5.356;2023-02-28T09:52:56;1.47;;;1.10;;
24617;SDS011;12762;51.730;5.356;2023-02-28T09:58:00;2.43;;;1.20;;
24617;SDS011;12762;51.730;5.356;2023-02-28T10:00:30;2.27;;;1.17;;
24617;SDS011;12762;51.730;5.356;2023-02-28T10:05:57;1.57;;;1.00;;
24617;SDS011;12762;51.730;5.356;2023-02-28T10:08:27;1.20;;;0.90;;
24617;SDS011;12762;51.730;5.356;2023-02-28T10:10:58;1.93;;;1.00;;
24617;SDS011;12762;51.730;5.356;2023-02-28T10:13:39;3.23;;;1.30;;
24617;SDS011;12762;51.730;5.356;2023-02-28T10:16:12;1.73;;;1.13;;
24617;SDS011;12762;51.730;5.356;2023-02-28T10:18:43;2.93;;;1.10;;
24617;SDS011;12762;51.730;5.356;2023-02-28T10:21:17;2.17;;;1.40;;
24617;SDS011;12762;51.730;5.356;2023-02-28T10:24:04;1.40;;;1.20;;
24617;SDS011;12762;51.730;5.356;2023-02-28T10:26:37;2.47;;;1.20;;
24617;SDS011;12762;51.730;5.356;2023-02-28T10:29:07;1.73;;;1.20;;
24617;SDS011;12762;51.730;5.356;2023-02-28T10:31:34;2.63;;;0.97;;
24617;SDS011;12762;51.730;5.356;2023-02-28T10:34:01;1.30;;;1.00;;
24617;SDS011;12762;51.730;5.356;2023-02-28T10:36:30;2.13;;;1.20;;
24617;SDS011;12762;51.730;5.356;2023-02-28T10:38:59;2.43;;;1.40;;
24617;SDS011;12762;51.730;5.356;2023-02-28T10:41:27;1.63;;;1.20;;
24617;SDS011;12762;51.730;5.356;2023-02-28T10:46:48;2.33;;;1.37;;
24617;SDS011;12762;51.730;5.356;2023-02-28T10:49:20;3.83;;;1.17;;
24617;SDS011;12762;51.730;5.356;2023-02-28T10:51:59;2.00;;;1.23;;
24617;SDS011;12762;51.730;5.356;2023-02-28T10:57:05;3.37;;;1.50;;
24617;SDS011;12762;51.730;5.356;2023-02-28T10:59:33;1.47;;;1.10;;
24617;SDS011;12762;51.730;5.356;2023-02-28T11:02:00;4.93;;;1.47;;
24617;SDS011;12762;51.730;5.356;2023-02-28T11:06:59;1.93;;;1.20;;
24617;SDS011;12762;51.730;5.356;2023-02-28T11:09:48;1.20;;;1.10;;
24617;SDS011;12762;51.730;5.356;2023-02-28T11:12:26;2.63;;;1.40;;
24617;SDS011;12762;51.730;5.356;2023-02-28T11:15:14;4.00;;;1.13;;
24617;SDS011;12762;51.730;5.356;2023-02-28T11:17:56;1.80;;;1.10;;
24617;SDS011;12762;51.730;5.356;2023-02-28T11:20:24;1.77;;;1.00;;
24617;SDS011;12762;51.730;5.356;2023-02-28T11:22:57;4.13;;;1.17;;
24617;SDS011;12762;51.730;5.356;2023-02-28T11:25:33;2.03;;;1.13;;
24617;SDS011;12762;51.730;5.356;2023-02-28T11:28:05;1.07;;;0.97;;
24617;SDS011;12762;51.730;5.356;2023-02-28T11:31:15;1.77;;;1.07;;
24617;SDS011;12762;51.730;5.356;2023-02-28T11:36:21;2.37;;;1.30;;
24617;SDS011;12762;51.730;5.356;2023-02-28T11:38:54;1.87;;;1.10;;
24617;SDS011;12762;51.730;5.356;2023-02-28T11:47:41;1.50;;;1.10;;
24617;SDS011;12762;51.730;5.356;2023-02-28T11:55:26;3.17;;;1.43;;
24617;SDS011;12762;51.730;5.356;2023-02-28T11:58:05;2.93;;;1.40;;
24617;SDS011;12762;51.730;5.356;2023-02-28T12:01:07;2.57;;;1.20;;
24617;SDS011;12762;51.730;5.356;2023-02-28T12:04:03;2.83;;;1.30;;
24617;SDS011;12762;51.730;5.356;2023-02-28T12:09:44;2.00;;;1.10;;
24617;SDS011;12762;51.730;5.356;2023-02-28T12:20:49;2.77;;;1.60;;
24617;SDS011;12762;51.730;5.356;2023-02-28T12:28:44;2.07;;;1.50;;
24617;SDS011;12762;51.730;5.356;2023-02-28T12:31:24;1.93;;;1.40;;
24617;SDS011;12762;51.730;5.356;2023-02-28T12:34:06;1.40;;;1.13;;
24617;SDS011;12762;51.730;5.356;2023-02-28T12:36:39;1.60;;;1.20;;
24617;SDS011;12762;51.730;5.356;2023-02-28T12:39:28;3.20;;;1.50;;
24617;SDS011;12762;51.730;5.356;2023-02-28T12:42:17;1.37;;;1.20;;
24617;SDS011;12762;51.730;5.356;2023-02-28T12:45:39;1.60;;;1.30;;
24617;SDS011;12762;51.730;5.356;2023-02-28T12:48:11;3.97;;;1.30;;
24617;SDS011;12762;51.730;5.356;2023-02-28T12:51:00;2.53;;;1.30;;
24617;SDS011;12762;51.730;5.356;2023-02-28T12:53:45;2.40;;;1.30;;
24617;SDS011;12762;51.730;5.356;2023-02-28T12:56:17;3.20;;;1.40;;
24617;SDS011;12762;51.730;5.356;2023-02-28T12:58:55;2.23;;;1.40;;
24617;SDS011;12762;51.730;5.356;2023-02-28T13:10:00;1.57;;;1.20;;
24617;SDS011;12762;51.730;5.356;2023-02-28T13:12:49;2.50;;;1.70;;
24617;SDS011;12762;51.730;5.356;2023-02-28T13:15:22;2.17;;;1.20;;
24617;SDS011;12762;51.730;5.356;2023-02-28T13:17:52;1.53;;;1.10;;
24617;SDS011;12762;51.730;5.356;2023-02-28T13:20:25;2.60;;;1.53;;
24617;SDS011;12762;51.730;5.356;2023-02-28T13:22:54;3.70;;;1.50;;
24617;SDS011;12762;51.730;5.356;2023-02-28T13:28:12;2.00;;;1.30;;
24617;SDS011;12762;51.730;5.356;2023-02-28T13:31:02;1.90;;;1.40;;
24617;SDS011;12762;51.730;5.356;2023-02-28T13:33:34;3.13;;;1.50;;
24617;SDS011;12762;51.730;5.356;2023-02-28T14:09:03;2.40;;;1.50;;
24617;SDS011;12762;51.730;5.356;2023-02-28T14:11:44;3.27;;;1.50;;
24617;SDS011;12762;51.730;5.356;2023-02-28T14:14:53;3.03;;;1.63;;
24617;SDS011;12762;51.730;5.356;2023-02-28T14:17:02;2.33;;;1.70;;
24617;SDS011;12762;51.730;5.356;2023-02-28T14:19:36;2.70;;;1.63;;
24617;SDS011;12762;51.730;5.356;2023-02-28T14:22:08;3.27;;;1.97;;
24617;SDS011;12762;51.730;5.356;2023-02-28T14:36:04;1.97;;;1.43;;
24617;SDS011;12762;51.730;5.356;2023-02-28T14:38:36;2.00;;;1.50;;
24617;SDS011;12762;51.730;5.356;2023-02-28T14:41:15;3.13;;;2.13;;
24617;SDS011;12762;51.730;5.356;2023-02-28T14:43:50;3.07;;;1.83;;
24617;SDS011;12762;51.730;5.356;2023-02-28T14:46:30;2.83;;;1.80;;
24617;SDS011;12762;51.730;5.356;2023-02-28T14:49:04;4.77;;;2.00;;
24617;SDS011;12762;51.730;5.356;2023-02-28T14:51:33;3.77;;;1.67;;
24617;SDS011;12762;51.730;5.356;2023-02-28T14:54:01;4.00;;;1.97;;
24617;SDS011;12762;51.730;5.356;2023-02-28T14:56:36;4.03;;;1.53;;
24617;SDS011;12762;51.730;5.356;2023-02-28T14:59:05;3.20;;;1.80;;
24617;SDS011;12762;51.730;5.356;2023-02-28T15:01:47;2.60;;;1.27;;
24617;SDS011;12762;51.730;5.356;2023-02-28T15:04:25;2.90;;;1.30;;
24617;SDS011;12762;51.730;5.356;2023-02-28T15:07:15;2.37;;;1.30;;
24617;SDS011;12762;51.730;5.356;2023-02-28T15:09:41;2.50;;;1.60;;
24617;SDS011;12762;51.730;5.356;2023-02-28T15:12:09;2.83;;;1.47;;
24617;SDS011;12762;51.730;5.356;2023-02-28T15:14:42;2.63;;;1.80;;
24617;SDS011;12762;51.730;5.356;2023-02-28T15:17:21;4.20;;;1.53;;
24617;SDS011;12762;51.730;5.356;2023-02-28T15:19:50;3.27;;;1.60;;
24617;SDS011;12762;51.730;5.356;2023-02-28T15:22:21;3.10;;;1.67;;
24617;SDS011;12762;51.730;5.356;2023-02-28T15:24:56;2.10;;;1.60;;
24617;SDS011;12762;51.730;5.356;2023-02-28T15:27:25;3.73;;;1.80;;
24617;SDS011;12762;51.730;5.356;2023-02-28T15:29:59;3.23;;;1.93;;
24617;SDS011;12762;51.730;5.356;2023-02-28T15:32:32;3.63;;;2.03;;
24617;SDS011;12762;51.730;5.356;2023-02-28T15:40:35;2.53;;;1.93;;
24617;SDS011;12762;51.730;5.356;2023-02-28T15:43:12;3.00;;;1.60;;
24617;SDS011;12762;51.730;5.356;2023-02-28T15:45:51;1.97;;;1.40;;
24617;SDS011;12762;51.730;5.356;2023-02-28T15:48:24;2.50;;;1.80;;
24617;SDS011;12762;51.730;5.356;2023-02-28T15:51:19;2.67;;;1.33;;
24617;SDS011;12762;51.730;5.356;2023-02-28T15:54:05;2.73;;;1.60;;
24617;SDS011;12762;51.730;5.356;2023-02-28T15:56:43;3.67;;;1.60;;
24617;SDS011;12762;51.730;5.356;2023-02-28T15:59:13;2.47;;;1.33;;
24617;SDS011;12762;51.730;5.356;2023-02-28T16:01:44;2.40;;;1.33;;
24617;SDS011;12762;51.730;5.356;2023-02-28T16:04:13;1.77;;;1.37;;
24617;SDS011;12762;51.730;5.356;2023-02-28T16:07:03;2.30;;;1.50;;
24617;SDS011;12762;51.730;5.356;2023-02-28T16:09:31;3.40;;;1.43;;
24617;SDS011;12762;51.730;5.356;2023-02-28T16:12:02;2.03;;;1.70;;
24617;SDS011;12762;51.730;5.356;2023-02-28T16:14:31;2.93;;;1.77;;
24617;SDS011;12762;51.730;5.356;2023-02-28T16:17:02;3.73;;;1.57;;
24617;SDS011;12762;51.730;5.356;2023-02-28T16:19:35;3.43;;;1.57;;
24617;SDS011;12762;51.730;5.356;2023-02-28T16:22:01;3.10;;;1.30;;
24617;SDS011;12762;51.730;5.356;2023-02-28T16:24:31;2.10;;;1.50;;
24617;SDS011;12762;51.730;5.356;2023-02-28T16:26:58;3.40;;;1.90;;
24617;SDS011;12762;51.730;5.356;2023-02-28T16:29:31;2.90;;;1.73;;
24617;SDS011;12762;51.730;5.356;2023-02-28T16:32:06;2.50;;;1.60;;
24617;SDS011;12762;51.730;5.356;2023-02-28T16:34:35;2.80;;;1.60;;
24617;SDS011;12762;51.730;5.356;2023-02-28T16:37:02;4.83;;;1.83;;
24617;SDS011;12762;51.730;5.356;2023-02-28T16:39:30;2.73;;;1.90;;
24617;SDS011;12762;51.730;5.356;2023-02-28T16:42:00;2.37;;;1.70;;
24617;SDS011;12762;51.730;5.356;2023-02-28T16:44:32;2.50;;;1.50;;
24617;SDS011;12762;51.730;5.356;2023-02-28T16:47:04;4.13;;;2.00;;
24617;SDS011;12762;51.730;5.356;2023-02-28T16:49:31;3.20;;;1.70;;
24617;SDS011;12762;51.730;5.356;2023-02-28T16:51:58;1.87;;;1.50;;
24617;SDS011;12762;51.730;5.356;2023-02-28T16:54:25;1.93;;;1.50;;
24617;SDS011;12762;51.730;5.356;2023-02-28T16:56:53;3.67;;;1.60;;
24617;SDS011;12762;51.730;5.356;2023-02-28T16:59:23;2.63;;;1.60;;
24617;SDS011;12762;51.730;5.356;2023-02-28T17:01:52;3.30;;;1.93;;
24617;SDS011;12762;51.730;5.356;2023-02-28T17:04:20;5.57;;;1.70;;
24617;SDS011;12762;51.730;5.356;2023-02-28T17:06:47;5.40;;;1.63;;
24617;SDS011;12762;51.730;5.356;2023-02-28T17:09:18;2.70;;;1.60;;
24617;SDS011;12762;51.730;5.356;2023-02-28T17:11:55;2.43;;;1.70;;
24617;SDS011;12762;51.730;5.356;2023-02-28T17:14:22;3.87;;;1.77;;
24617;SDS011;12762;51.730;5.356;2023-02-28T17:16:49;2.30;;;1.57;;
24617;SDS011;12762;51.730;5.356;2023-02-28T17:19:16;4.43;;;1.70;;
24617;SDS011;12762;51.730;5.356;2023-02-28T17:21:46;2.63;;;1.80;;
24617;SDS011;12762;51.730;5.356;2023-02-28T17:24:13;5.67;;;2.00;;
24617;SDS011;12762;51.730;5.356;2023-02-28T17:26:55;3.50;;;2.07;;
24617;SDS011;12762;51.730;5.356;2023-02-28T17:29:22;4.17;;;2.17;;
24617;SDS011;12762;51.730;5.356;2023-02-28T17:31:50;5.63;;;2.10;;
24617;SDS011;12762;51.730;5.356;2023-02-28T17:34:20;3.83;;;2.00;;
24617;SDS011;12762;51.730;5.356;2023-02-28T17:36:48;4.47;;;2.20;;
24617;SDS011;12762;51.730;5.356;2023-02-28T17:39:16;3.50;;;2.20;;
24617;SDS011;12762;51.730;5.356;2023-02-28T17:41:51;2.53;;;1.90;;